sensor_id;sensor_type;location;lat;lon;timestamp;P1;durP1;ratioP1;P2;durP2;ratioP2
23222;SDS011;11780;13.904;100.620;2022-12-13T00:00:37;45.17;;;40.65;;
23222;SDS011;11780;13.904;100.620;2022-12-13T00:03:07;51.67;;;44.90;;
23222;SDS011;11780;13.904;100.620;2022-12-13T00:05:44;61.80;;;55.60;;
23222;SDS011;11780;13.904;100.620;2022-12-13T00:08:14;67.43;;;62.40;;
23222;SDS011;11780;13.904;100.620;2022-12-13T00:10:45;52.70;;;48.77;;
23222;SDS011;11780;13.904;100.620;2022-12-13T00:13:15;30.48;;;26.13;;
23222;SDS011;11780;13.904;100.620;2022-12-13T00:15:54;28.90;;;20.45;;
23222;SDS011;11780;13.904;100.620;2022-12-13T00:18:28;42.03;;;22.42;;
23222;SDS011;11780;13.904;100.620;2022-12-13T00:23:32;35.78;;;21.83;;
23222;SDS011;11780;13.904;100.620;2022-12-13T00:26:04;32.50;;;21.55;;
23222;SDS011;11780;13.904;100.620;2022-12-13T00:28:35;28.38;;;19.73;;
23222;SDS011;11780;13.904;100.620;2022-12-13T00:31:07;30.52;;;18.67;;
23222;SDS011;11780;13.904;100.620;2022-12-13T00:36:28;32.05;;;19.20;;
23222;SDS011;11780;13.904;100.620;2022-12-13T00:38:59;34.35;;;18.65;;
23222;SDS011;11780;13.904;100.620;2022-12-13T00:41:30;34.00;;;19.87;;
23222;SDS011;11780;13.904;100.620;2022-12-13T00:44:03;30.63;;;18.85;;
23222;SDS011;11780;13.904;100.620;2022-12-13T00:46:33;31.55;;;18.50;;
23222;SDS011;11780;13.904;100.620;2022-12-13T00:49:04;28.95;;;17.92;;
23222;SDS011;11780;13.904;100.620;2022-12-13T00:51:34;29.70;;;18.33;;
23222;SDS011;11780;13.904;100.620;2022-12-13T00:54:04;36.13;;;17.92;;
23222;SDS011;11780;13.904;100.620;2022-12-13T00:56:35;27.70;;;17.58;;
23222;SDS011;11780;13.904;100.620;2022-12-13T00:59:06;28.98;;;18.40;;
23222;SDS011;11780;13.904;100.620;2022-12-13T01:01:36;40.37;;;19.70;;
23222;SDS011;11780;13.904;100.620;2022-12-13T01:04:08;27.73;;;16.38;;
23222;SDS011;11780;13.904;100.620;2022-12-13T01:06:40;27.13;;;16.95;;
23222;SDS011;11780;13.904;100.620;2022-12-13T01:09:17;29.00;;;16.33;;
23222;SDS011;11780;13.904;100.620;2022-12-13T01:11:49;36.28;;;18.98;;
23222;SDS011;11780;13.904;100.620;2022-12-13T01:14:20;30.40;;;18.05;;
23222;SDS011;11780;13.904;100.620;2022-12-13T01:16:50;25.90;;;16.05;;
23222;SDS011;11780;13.904;100.620;2022-12-13T01:19:27;31.58;;;17.23;;
23222;SDS011;11780;13.904;100.620;2022-12-13T01:22:01;25.02;;;17.00;;
23222;SDS011;11780;13.904;100.620;2022-12-13T01:24:33;22.55;;;16.23;;
23222;SDS011;11780;13.904;100.620;2022-12-13T01:27:03;31.80;;;17.10;;
23222;SDS011;11780;13.904;100.620;2022-12-13T01:29:33;41.60;;;19.27;;
23222;SDS011;11780;13.904;100.620;2022-12-13T01:32:03;31.40;;;17.23;;
23222;SDS011;11780;13.904;100.620;2022-12-13T01:34:33;25.27;;;16.35;;
23222;SDS011;11780;13.904;100.620;2022-12-13T01:37:04;34.03;;;18.17;;
23222;SDS011;11780;13.904;100.620;2022-12-13T01:39:34;23.00;;;16.63;;
23222;SDS011;11780;13.904;100.620;2022-12-13T01:42:04;26.33;;;16.33;;
23222;SDS011;11780;13.904;100.620;2022-12-13T01:50:21;27.48;;;17.60;;
23222;SDS011;11780;13.904;100.620;2022-12-13T01:53:19;20.92;;;16.55;;
23222;SDS011;11780;13.904;100.620;2022-12-13T01:55:54;27.95;;;17.05;;
23222;SDS011;11780;13.904;100.620;2022-12-13T01:58:30;26.58;;;16.42;;
23222;SDS011;11780;13.904;100.620;2022-12-13T02:01:01;27.70;;;16.65;;
23222;SDS011;11780;13.904;100.620;2022-12-13T02:03:32;23.98;;;15.95;;
23222;SDS011;11780;13.904;100.620;2022-12-13T02:06:16;23.55;;;15.70;;
23222;SDS011;11780;13.904;100.620;2022-12-13T02:09:07;23.38;;;16.02;;
23222;SDS011;11780;13.904;100.620;2022-12-13T02:11:39;26.35;;;17.17;;
23222;SDS011;11780;13.904;100.620;2022-12-13T02:14:11;24.52;;;16.77;;
23222;SDS011;11780;13.904;100.620;2022-12-13T02:16:45;25.85;;;16.77;;
23222;SDS011;11780;13.904;100.620;2022-12-13T02:31:06;26.60;;;16.33;;
23222;SDS011;11780;13.904;100.620;2022-12-13T02:39:31;23.08;;;15.32;;
23222;SDS011;11780;13.904;100.620;2022-12-13T02:42:06;23.40;;;16.35;;
23222;SDS011;11780;13.904;100.620;2022-12-13T02:44:54;24.15;;;15.98;;
23222;SDS011;11780;13.904;100.620;2022-12-13T02:47:29;22.58;;;14.35;;
23222;SDS011;11780;13.904;100.620;2022-12-13T02:50:03;21.40;;;15.20;;
23222;SDS011;11780;13.904;100.620;2022-12-13T02:52:36;25.58;;;15.90;;
23222;SDS011;11780;13.904;100.620;2022-12-13T02:55:10;18.42;;;15.73;;
23222;SDS011;11780;13.904;100.620;2022-12-13T02:57:44;22.15;;;15.60;;
23222;SDS011;11780;13.904;100.620;2022-12-13T03:00:18;26.27;;;15.95;;
23222;SDS011;11780;13.904;100.620;2022-12-13T03:02:59;28.42;;;17.73;;
23222;SDS011;11780;13.904;100.620;2022-12-13T03:11:43;21.13;;;15.00;;
23222;SDS011;11780;13.904;100.620;2022-12-13T03:14:41;24.75;;;16.00;;
23222;SDS011;11780;13.904;100.620;2022-12-13T03:17:35;22.15;;;14.95;;
23222;SDS011;11780;13.904;100.620;2022-12-13T03:20:14;23.05;;;14.75;;
23222;SDS011;11780;13.904;100.620;2022-12-13T03:22:51;20.38;;;15.52;;
23222;SDS011;11780;13.904;100.620;2022-12-13T03:25:23;21.33;;;15.10;;
23222;SDS011;11780;13.904;100.620;2022-12-13T03:27:59;23.38;;;15.25;;
23222;SDS011;11780;13.904;100.620;2022-12-13T03:30:31;20.60;;;15.00;;
23222;SDS011;11780;13.904;100.620;2022-12-13T03:33:02;21.75;;;14.98;;
23222;SDS011;11780;13.904;100.620;2022-12-13T03:35:32;21.25;;;14.80;;
23222;SDS011;11780;13.904;100.620;2022-12-13T03:38:12;20.98;;;15.77;;
23222;SDS011;11780;13.904;100.620;2022-12-13T03:40:53;21.75;;;14.93;;
23222;SDS011;11780;13.904;100.620;2022-12-13T03:43:26;20.42;;;15.23;;
23222;SDS011;11780;13.904;100.620;2022-12-13T03:45:59;20.48;;;14.98;;
23222;SDS011;11780;13.904;100.620;2022-12-13T03:48:29;24.13;;;15.02;;
23222;SDS011;11780;13.904;100.620;2022-12-13T03:50:59;20.48;;;14.73;;
23222;SDS011;11780;13.904;100.620;2022-12-13T03:53:31;21.63;;;14.15;;
23222;SDS011;11780;13.904;100.620;2022-12-13T03:56:02;22.77;;;15.50;;
23222;SDS011;11780;13.904;100.620;2022-12-13T03:58:49;21.80;;;14.82;;
23222;SDS011;11780;13.904;100.620;2022-12-13T04:01:19;19.30;;;14.85;;
23222;SDS011;11780;13.904;100.620;2022-12-13T04:03:51;23.35;;;14.43;;
23222;SDS011;11780;13.904;100.620;2022-12-13T04:06:39;25.38;;;15.25;;
23222;SDS011;11780;13.904;100.620;2022-12-13T04:09:10;21.27;;;15.05;;
23222;SDS011;11780;13.904;100.620;2022-12-13T04:11:40;19.90;;;14.65;;
23222;SDS011;11780;13.904;100.620;2022-12-13T04:14:28;19.73;;;13.57;;
23222;SDS011;11780;13.904;100.620;2022-12-13T04:16:59;26.70;;;15.85;;
23222;SDS011;11780;13.904;100.620;2022-12-13T04:19:29;26.25;;;16.35;;
23222;SDS011;11780;13.904;100.620;2022-12-13T04:22:17;30.33;;;17.50;;
23222;SDS011;11780;13.904;100.620;2022-12-13T04:24:51;24.08;;;14.48;;
23222;SDS011;11780;13.904;100.620;2022-12-13T04:27:36;18.45;;;13.73;;
23222;SDS011;11780;13.904;100.620;2022-12-13T04:30:07;28.25;;;16.83;;
23222;SDS011;11780;13.904;100.620;2022-12-13T04:32:37;24.20;;;15.70;;
23222;SDS011;11780;13.904;100.620;2022-12-13T04:35:07;24.70;;;16.52;;
23222;SDS011;11780;13.904;100.620;2022-12-13T04:37:37;28.35;;;16.60;;
23222;SDS011;11780;13.904;100.620;2022-12-13T04:40:09;21.15;;;14.95;;
23222;SDS011;11780;13.904;100.620;2022-12-13T04:43:06;30.17;;;17.35;;
23222;SDS011;11780;13.904;100.620;2022-12-13T04:45:54;24.30;;;14.88;;
23222;SDS011;11780;13.904;100.620;2022-12-13T04:48:43;22.45;;;14.90;;
23222;SDS011;11780;13.904;100.620;2022-12-13T04:51:13;19.90;;;15.10;;
23222;SDS011;11780;13.904;100.620;2022-12-13T04:56:14;23.55;;;16.30;;
23222;SDS011;11780;13.904;100.620;2022-12-13T04:58:44;25.75;;;15.45;;
23222;SDS011;11780;13.904;100.620;2022-12-13T05:01:15;24.67;;;16.23;;
23222;SDS011;11780;13.904;100.620;2022-12-13T05:03:45;23.48;;;15.15;;
23222;SDS011;11780;13.904;100.620;2022-12-13T05:06:15;24.30;;;15.70;;
23222;SDS011;11780;13.904;100.620;2022-12-13T05:08:53;19.98;;;14.70;;
23222;SDS011;11780;13.904;100.620;2022-12-13T05:11:27;23.38;;;16.20;;
23222;SDS011;11780;13.904;100.620;2022-12-13T05:14:02;20.15;;;14.55;;
23222;SDS011;11780;13.904;100.620;2022-12-13T05:16:32;26.23;;;14.95;;
23222;SDS011;11780;13.904;100.620;2022-12-13T05:19:02;20.05;;;14.15;;
23222;SDS011;11780;13.904;100.620;2022-12-13T05:21:32;20.83;;;15.40;;
23222;SDS011;11780;13.904;100.620;2022-12-13T05:24:03;22.00;;;15.65;;
23222;SDS011;11780;13.904;100.620;2022-12-13T05:26:34;27.08;;;16.08;;
23222;SDS011;11780;13.904;100.620;2022-12-13T05:29:05;18.02;;;13.90;;
23222;SDS011;11780;13.904;100.620;2022-12-13T05:31:35;20.35;;;14.73;;
23222;SDS011;11780;13.904;100.620;2022-12-13T05:34:05;24.58;;;15.93;;
23222;SDS011;11780;13.904;100.620;2022-12-13T05:36:35;19.90;;;14.80;;
23222;SDS011;11780;13.904;100.620;2022-12-13T05:39:05;19.98;;;14.77;;
23222;SDS011;11780;13.904;100.620;2022-12-13T05:41:56;24.02;;;16.00;;
23222;SDS011;11780;13.904;100.620;2022-12-13T05:44:31;21.40;;;14.48;;
23222;SDS011;11780;13.904;100.620;2022-12-13T05:47:02;22.48;;;15.88;;
23222;SDS011;11780;13.904;100.620;2022-12-13T05:49:32;18.35;;;14.20;;
23222;SDS011;11780;13.904;100.620;2022-12-13T05:52:13;21.83;;;15.27;;
23222;SDS011;11780;13.904;100.620;2022-12-13T05:55:03;27.30;;;16.88;;
23222;SDS011;11780;13.904;100.620;2022-12-13T05:57:34;30.23;;;17.08;;
23222;SDS011;11780;13.904;100.620;2022-12-13T06:00:06;21.63;;;15.43;;
23222;SDS011;11780;13.904;100.620;2022-12-13T06:05:42;17.63;;;14.65;;
23222;SDS011;11780;13.904;100.620;2022-12-13T06:08:13;21.50;;;14.70;;
23222;SDS011;11780;13.904;100.620;2022-12-13T06:10:54;20.25;;;15.65;;
23222;SDS011;11780;13.904;100.620;2022-12-13T06:13:39;22.50;;;16.58;;
23222;SDS011;11780;13.904;100.620;2022-12-13T06:16:11;19.45;;;15.07;;
23222;SDS011;11780;13.904;100.620;2022-12-13T06:19:08;23.02;;;16.60;;
23222;SDS011;11780;13.904;100.620;2022-12-13T06:21:38;23.90;;;17.13;;
23222;SDS011;11780;13.904;100.620;2022-12-13T06:24:13;22.98;;;16.80;;
23222;SDS011;11780;13.904;100.620;2022-12-13T06:26:44;21.20;;;16.67;;
23222;SDS011;11780;13.904;100.620;2022-12-13T06:29:15;23.83;;;17.23;;
23222;SDS011;11780;13.904;100.620;2022-12-13T06:31:51;21.75;;;16.15;;
23222;SDS011;11780;13.904;100.620;2022-12-13T06:34:31;20.45;;;15.50;;
23222;SDS011;11780;13.904;100.620;2022-12-13T06:37:04;32.20;;;18.20;;
23222;SDS011;11780;13.904;100.620;2022-12-13T06:39:36;22.50;;;16.77;;
23222;SDS011;11780;13.904;100.620;2022-12-13T06:42:09;20.38;;;16.88;;
23222;SDS011;11780;13.904;100.620;2022-12-13T06:45:06;21.67;;;16.60;;
23222;SDS011;11780;13.904;100.620;2022-12-13T06:47:37;22.85;;;17.02;;
23222;SDS011;11780;13.904;100.620;2022-12-13T06:50:07;25.83;;;18.08;;
23222;SDS011;11780;13.904;100.620;2022-12-13T06:52:37;24.87;;;17.43;;
23222;SDS011;11780;13.904;100.620;2022-12-13T06:55:23;20.67;;;16.00;;
23222;SDS011;11780;13.904;100.620;2022-12-13T06:57:53;22.88;;;16.38;;
23222;SDS011;11780;13.904;100.620;2022-12-13T07:00:26;25.33;;;17.77;;
23222;SDS011;11780;13.904;100.620;2022-12-13T07:03:07;20.95;;;16.25;;
23222;SDS011;11780;13.904;100.620;2022-12-13T07:05:39;30.45;;;18.30;;
23222;SDS011;11780;13.904;100.620;2022-12-13T07:08:10;25.77;;;17.55;;
23222;SDS011;11780;13.904;100.620;2022-12-13T07:10:48;24.40;;;17.50;;
23222;SDS011;11780;13.904;100.620;2022-12-13T07:13:19;21.63;;;16.47;;
23222;SDS011;11780;13.904;100.620;2022-12-13T07:15:50;22.13;;;16.52;;
23222;SDS011;11780;13.904;100.620;2022-12-13T07:18:27;20.55;;;16.83;;
23222;SDS011;11780;13.904;100.620;2022-12-13T07:20:57;23.40;;;17.48;;
23222;SDS011;11780;13.904;100.620;2022-12-13T07:23:27;23.03;;;17.73;;
23222;SDS011;11780;13.904;100.620;2022-12-13T07:25:58;21.70;;;16.60;;
23222;SDS011;11780;13.904;100.620;2022-12-13T07:28:29;20.65;;;17.10;;
23222;SDS011;11780;13.904;100.620;2022-12-13T07:31:03;18.80;;;16.08;;
23222;SDS011;11780;13.904;100.620;2022-12-13T07:33:35;23.48;;;17.13;;
23222;SDS011;11780;13.904;100.620;2022-12-13T07:36:07;23.17;;;18.03;;
23222;SDS011;11780;13.904;100.620;2022-12-13T07:38:40;24.40;;;18.83;;
23222;SDS011;11780;13.904;100.620;2022-12-13T07:41:11;34.00;;;19.60;;
23222;SDS011;11780;13.904;100.620;2022-12-13T07:43:50;26.67;;;18.10;;
23222;SDS011;11780;13.904;100.620;2022-12-13T07:46:22;22.42;;;17.73;;
23222;SDS011;11780;13.904;100.620;2022-12-13T07:49:02;26.88;;;19.73;;
23222;SDS011;11780;13.904;100.620;2022-12-13T07:51:34;35.25;;;20.95;;
23222;SDS011;11780;13.904;100.620;2022-12-13T07:54:04;29.38;;;19.73;;
23222;SDS011;11780;13.904;100.620;2022-12-13T07:56:36;23.60;;;18.75;;
23222;SDS011;11780;13.904;100.620;2022-12-13T07:59:07;43.95;;;23.00;;
23222;SDS011;11780;13.904;100.620;2022-12-13T08:01:39;29.98;;;22.02;;
23222;SDS011;11780;13.904;100.620;2022-12-13T08:04:09;29.25;;;21.67;;
23222;SDS011;11780;13.904;100.620;2022-12-13T08:06:39;24.23;;;18.98;;
23222;SDS011;11780;13.904;100.620;2022-12-13T08:09:09;24.52;;;19.15;;
23222;SDS011;11780;13.904;100.620;2022-12-13T08:11:39;25.48;;;19.75;;
23222;SDS011;11780;13.904;100.620;2022-12-13T08:14:10;25.48;;;19.63;;
23222;SDS011;11780;13.904;100.620;2022-12-13T08:16:40;22.75;;;18.52;;
23222;SDS011;11780;13.904;100.620;2022-12-13T08:19:10;23.20;;;18.10;;
23222;SDS011;11780;13.904;100.620;2022-12-13T08:21:40;24.13;;;18.92;;
23222;SDS011;11780;13.904;100.620;2022-12-13T08:24:28;25.38;;;18.88;;
23222;SDS011;11780;13.904;100.620;2022-12-13T08:29:30;29.90;;;21.25;;
23222;SDS011;11780;13.904;100.620;2022-12-13T08:32:04;28.83;;;21.67;;
23222;SDS011;11780;13.904;100.620;2022-12-13T08:34:36;29.50;;;20.60;;
23222;SDS011;11780;13.904;100.620;2022-12-13T08:37:06;25.17;;;19.20;;
23222;SDS011;11780;13.904;100.620;2022-12-13T08:39:37;28.13;;;20.90;;
23222;SDS011;11780;13.904;100.620;2022-12-13T08:42:11;35.08;;;21.65;;
23222;SDS011;11780;13.904;100.620;2022-12-13T08:44:47;30.42;;;20.73;;
23222;SDS011;11780;13.904;100.620;2022-12-13T08:47:19;31.85;;;21.38;;
23222;SDS011;11780;13.904;100.620;2022-12-13T08:49:53;34.75;;;21.27;;
23222;SDS011;11780;13.904;100.620;2022-12-13T08:52:31;29.30;;;20.55;;
23222;SDS011;11780;13.904;100.620;2022-12-13T08:55:08;32.25;;;20.50;;
23222;SDS011;11780;13.904;100.620;2022-12-13T08:57:45;30.13;;;20.63;;
23222;SDS011;11780;13.904;100.620;2022-12-13T09:00:16;31.20;;;20.77;;
23222;SDS011;11780;13.904;100.620;2022-12-13T09:02:48;37.58;;;22.15;;
23222;SDS011;11780;13.904;100.620;2022-12-13T09:05:18;30.57;;;20.73;;
23222;SDS011;11780;13.904;100.620;2022-12-13T09:08:00;34.78;;;21.90;;
23222;SDS011;11780;13.904;100.620;2022-12-13T09:10:57;32.83;;;22.27;;
23222;SDS011;11780;13.904;100.620;2022-12-13T09:13:48;32.83;;;20.90;;
23222;SDS011;11780;13.904;100.620;2022-12-13T09:16:27;24.63;;;19.75;;
23222;SDS011;11780;13.904;100.620;2022-12-13T09:19:02;31.48;;;21.70;;
23222;SDS011;11780;13.904;100.620;2022-12-13T09:21:52;33.47;;;21.45;;
23222;SDS011;11780;13.904;100.620;2022-12-13T09:24:29;29.77;;;21.05;;
23222;SDS011;11780;13.904;100.620;2022-12-13T09:27:03;30.83;;;20.45;;
23222;SDS011;11780;13.904;100.620;2022-12-13T09:29:36;26.65;;;20.10;;
23222;SDS011;11780;13.904;100.620;2022-12-13T09:34:37;27.58;;;20.52;;
23222;SDS011;11780;13.904;100.620;2022-12-13T09:37:11;28.27;;;20.13;;
23222;SDS011;11780;13.904;100.620;2022-12-13T09:39:49;27.25;;;19.77;;
23222;SDS011;11780;13.904;100.620;2022-12-13T09:42:22;26.60;;;20.02;;
23222;SDS011;11780;13.904;100.620;2022-12-13T09:44:58;31.63;;;20.73;;
23222;SDS011;11780;13.904;100.620;2022-12-13T09:47:35;30.63;;;20.95;;
23222;SDS011;11780;13.904;100.620;2022-12-13T09:52:51;28.80;;;20.60;;
23222;SDS011;11780;13.904;100.620;2022-12-13T09:55:27;30.45;;;20.90;;
23222;SDS011;11780;13.904;100.620;2022-12-13T09:58:10;27.20;;;18.95;;
23222;SDS011;11780;13.904;100.620;2022-12-13T10:00:43;34.78;;;21.40;;
23222;SDS011;11780;13.904;100.620;2022-12-13T10:03:17;32.55;;;20.75;;
23222;SDS011;11780;13.904;100.620;2022-12-13T10:05:55;31.80;;;19.73;;
23222;SDS011;11780;13.904;100.620;2022-12-13T10:08:31;32.08;;;20.38;;
23222;SDS011;11780;13.904;100.620;2022-12-13T10:11:05;35.33;;;21.65;;
23222;SDS011;11780;13.904;100.620;2022-12-13T10:13:42;29.17;;;20.42;;
23222;SDS011;11780;13.904;100.620;2022-12-13T10:16:18;31.70;;;20.00;;
23222;SDS011;11780;13.904;100.620;2022-12-13T10:18:50;23.40;;;20.02;;
23222;SDS011;11780;13.904;100.620;2022-12-13T10:21:37;27.30;;;20.00;;
23222;SDS011;11780;13.904;100.620;2022-12-13T10:24:22;31.65;;;21.20;;
23222;SDS011;11780;13.904;100.620;2022-12-13T10:27:13;34.35;;;20.85;;
23222;SDS011;11780;13.904;100.620;2022-12-13T10:29:56;27.45;;;20.65;;
23222;SDS011;11780;13.904;100.620;2022-12-13T10:37:59;30.23;;;21.27;;
23222;SDS011;11780;13.904;100.620;2022-12-13T10:40:58;31.10;;;20.98;;
23222;SDS011;11780;13.904;100.620;2022-12-13T10:43:28;28.20;;;20.23;;
23222;SDS011;11780;13.904;100.620;2022-12-13T10:45:59;31.97;;;21.13;;
23222;SDS011;11780;13.904;100.620;2022-12-13T10:51:09;31.50;;;21.33;;
23222;SDS011;11780;13.904;100.620;2022-12-13T10:56:16;30.48;;;21.33;;
23222;SDS011;11780;13.904;100.620;2022-12-13T10:59:09;38.83;;;23.17;;
23222;SDS011;11780;13.904;100.620;2022-12-13T11:05:26;40.38;;;23.98;;
23222;SDS011;11780;13.904;100.620;2022-12-13T11:10:58;30.02;;;21.63;;
23222;SDS011;11780;13.904;100.620;2022-12-13T11:18:53;31.77;;;21.42;;
23222;SDS011;11780;13.904;100.620;2022-12-13T11:21:29;32.33;;;22.35;;
23222;SDS011;11780;13.904;100.620;2022-12-13T11:24:05;31.50;;;22.23;;
23222;SDS011;11780;13.904;100.620;2022-12-13T11:26:37;43.67;;;25.77;;
23222;SDS011;11780;13.904;100.620;2022-12-13T11:29:50;32.40;;;23.60;;
23222;SDS011;11780;13.904;100.620;2022-12-13T11:35:47;41.35;;;24.45;;
23222;SDS011;11780;13.904;100.620;2022-12-13T11:41:04;34.80;;;22.85;;
23222;SDS011;11780;13.904;100.620;2022-12-13T11:44:00;43.53;;;25.92;;
23222;SDS011;11780;13.904;100.620;2022-12-13T11:46:42;40.50;;;24.65;;
23222;SDS011;11780;13.904;100.620;2022-12-13T11:49:21;33.40;;;22.25;;
23222;SDS011;11780;13.904;100.620;2022-12-13T11:58:16;38.38;;;23.77;;
23222;SDS011;11780;13.904;100.620;2022-12-13T12:01:15;35.38;;;23.17;;
23222;SDS011;11780;13.904;100.620;2022-12-13T12:03:57;30.20;;;21.83;;
23222;SDS011;11780;13.904;100.620;2022-12-13T12:06:58;32.03;;;22.13;;
23222;SDS011;11780;13.904;100.620;2022-12-13T12:12:47;33.38;;;21.73;;
23222;SDS011;11780;13.904;100.620;2022-12-13T12:15:28;35.20;;;24.10;;
23222;SDS011;11780;13.904;100.620;2022-12-13T12:18:12;31.20;;;21.88;;
23222;SDS011;11780;13.904;100.620;2022-12-13T12:26:16;30.73;;;22.13;;
23222;SDS011;11780;13.904;100.620;2022-12-13T12:28:55;33.72;;;22.10;;
23222;SDS011;11780;13.904;100.620;2022-12-13T12:37:28;31.52;;;21.50;;
23222;SDS011;11780;13.904;100.620;2022-12-13T12:57:12;31.60;;;21.30;;
23222;SDS011;11780;13.904;100.620;2022-12-13T13:00:02;36.90;;;22.38;;
23222;SDS011;11780;13.904;100.620;2022-12-13T13:02:56;32.35;;;21.75;;
23222;SDS011;11780;13.904;100.620;2022-12-13T13:05:34;29.67;;;20.70;;
23222;SDS011;11780;13.904;100.620;2022-12-13T13:08:15;39.20;;;22.20;;
23222;SDS011;11780;13.904;100.620;2022-12-13T13:10:49;26.55;;;20.10;;
23222;SDS011;11780;13.904;100.620;2022-12-13T13:13:47;28.95;;;20.50;;
23222;SDS011;11780;13.904;100.620;2022-12-13T13:16:30;39.85;;;22.98;;
23222;SDS011;11780;13.904;100.620;2022-12-13T13:22:35;28.42;;;22.02;;
23222;SDS011;11780;13.904;100.620;2022-12-13T13:25:28;29.10;;;20.95;;
23222;SDS011;11780;13.904;100.620;2022-12-13T13:28:20;27.83;;;22.27;;
23222;SDS011;11780;13.904;100.620;2022-12-13T13:31:04;31.48;;;22.27;;
23222;SDS011;11780;13.904;100.620;2022-12-13T13:33:41;28.77;;;21.58;;
23222;SDS011;11780;13.904;100.620;2022-12-13T13:39:16;27.20;;;21.17;;
23222;SDS011;11780;13.904;100.620;2022-12-13T13:42:07;28.02;;;22.42;;
23222;SDS011;11780;13.904;100.620;2022-12-13T13:50:00;24.83;;;20.70;;
23222;SDS011;11780;13.904;100.620;2022-12-13T13:55:25;30.42;;;20.80;;
23222;SDS011;11780;13.904;100.620;2022-12-13T14:09:11;32.72;;;22.75;;
23222;SDS011;11780;13.904;100.620;2022-12-13T14:20:39;29.52;;;23.48;;
23222;SDS011;11780;13.904;100.620;2022-12-13T14:29:40;31.83;;;23.60;;
23222;SDS011;11780;13.904;100.620;2022-12-13T14:32:25;32.10;;;23.15;;
23222;SDS011;11780;13.904;100.620;2022-12-13T14:34:58;30.45;;;24.48;;
23222;SDS011;11780;13.904;100.620;2022-12-13T14:38:03;32.77;;;24.97;;
23222;SDS011;11780;13.904;100.620;2022-12-13T14:40:35;38.00;;;25.75;;
23222;SDS011;11780;13.904;100.620;2022-12-13T14:45:57;34.08;;;28.05;;
23222;SDS011;11780;13.904;100.620;2022-12-13T14:48:36;33.72;;;26.25;;
23222;SDS011;11780;13.904;100.620;2022-12-13T14:51:27;31.65;;;24.90;;
23222;SDS011;11780;13.904;100.620;2022-12-13T14:54:13;34.97;;;25.58;;
23222;SDS011;11780;13.904;100.620;2022-12-13T14:56:52;36.33;;;27.90;;
23222;SDS011;11780;13.904;100.620;2022-12-13T14:59:30;37.40;;;26.45;;
23222;SDS011;11780;13.904;100.620;2022-12-13T15:02:03;38.35;;;27.08;;
23222;SDS011;11780;13.904;100.620;2022-12-13T15:04:34;32.70;;;25.60;;
23222;SDS011;11780;13.904;100.620;2022-12-13T15:12:51;35.08;;;27.23;;
23222;SDS011;11780;13.904;100.620;2022-12-13T15:15:25;35.95;;;25.63;;
23222;SDS011;11780;13.904;100.620;2022-12-13T15:18:04;33.50;;;27.40;;
23222;SDS011;11780;13.904;100.620;2022-12-13T15:20:43;33.60;;;27.25;;
23222;SDS011;11780;13.904;100.620;2022-12-13T15:26:10;34.80;;;25.77;;
23222;SDS011;11780;13.904;100.620;2022-12-13T15:28:57;39.10;;;28.25;;
23222;SDS011;11780;13.904;100.620;2022-12-13T15:31:37;44.65;;;27.95;;
23222;SDS011;11780;13.904;100.620;2022-12-13T15:36:58;37.30;;;26.83;;
23222;SDS011;11780;13.904;100.620;2022-12-13T15:39:58;41.85;;;29.40;;
23222;SDS011;11780;13.904;100.620;2022-12-13T15:42:35;40.88;;;27.83;;
23222;SDS011;11780;13.904;100.620;2022-12-13T15:45:16;38.38;;;26.38;;
23222;SDS011;11780;13.904;100.620;2022-12-13T15:48:03;36.55;;;26.42;;
23222;SDS011;11780;13.904;100.620;2022-12-13T15:50:35;32.70;;;25.90;;
23222;SDS011;11780;13.904;100.620;2022-12-13T15:53:25;41.80;;;25.88;;
23222;SDS011;11780;13.904;100.620;2022-12-13T15:55:57;37.03;;;27.60;;
23222;SDS011;11780;13.904;100.620;2022-12-13T15:58:35;40.33;;;28.25;;
23222;SDS011;11780;13.904;100.620;2022-12-13T16:01:21;32.50;;;27.20;;
23222;SDS011;11780;13.904;100.620;2022-12-13T16:04:01;37.28;;;26.80;;
23222;SDS011;11780;13.904;100.620;2022-12-13T16:06:33;35.92;;;26.65;;
23222;SDS011;11780;13.904;100.620;2022-12-13T16:09:04;36.78;;;26.70;;
23222;SDS011;11780;13.904;100.620;2022-12-13T16:11:46;32.80;;;26.55;;
23222;SDS011;11780;13.904;100.620;2022-12-13T16:17:01;33.42;;;25.30;;
23222;SDS011;11780;13.904;100.620;2022-12-13T16:19:55;33.65;;;26.02;;
23222;SDS011;11780;13.904;100.620;2022-12-13T16:22:35;37.08;;;27.63;;
23222;SDS011;11780;13.904;100.620;2022-12-13T16:25:08;31.33;;;25.53;;
23222;SDS011;11780;13.904;100.620;2022-12-13T16:27:41;32.35;;;26.98;;
23222;SDS011;11780;13.904;100.620;2022-12-13T16:30:25;33.60;;;27.67;;
23222;SDS011;11780;13.904;100.620;2022-12-13T16:33:16;39.27;;;26.60;;
23222;SDS011;11780;13.904;100.620;2022-12-13T16:35:56;36.00;;;25.15;;
23222;SDS011;11780;13.904;100.620;2022-12-13T16:38:26;39.80;;;26.98;;
23222;SDS011;11780;13.904;100.620;2022-12-13T16:40:58;32.70;;;25.30;;
23222;SDS011;11780;13.904;100.620;2022-12-13T16:46:21;38.28;;;28.55;;
23222;SDS011;11780;13.904;100.620;2022-12-13T16:49:23;36.72;;;28.60;;
23222;SDS011;11780;13.904;100.620;2022-12-13T16:51:54;36.70;;;26.67;;
23222;SDS011;11780;13.904;100.620;2022-12-13T16:54:25;33.33;;;25.85;;
23222;SDS011;11780;13.904;100.620;2022-12-13T16:56:55;40.97;;;28.23;;
23222;SDS011;11780;13.904;100.620;2022-12-13T16:59:26;36.37;;;26.63;;
23222;SDS011;11780;13.904;100.620;2022-12-13T17:01:56;36.10;;;28.13;;
23222;SDS011;11780;13.904;100.620;2022-12-13T17:04:27;37.72;;;27.25;;
23222;SDS011;11780;13.904;100.620;2022-12-13T17:06:58;36.63;;;27.45;;
23222;SDS011;11780;13.904;100.620;2022-12-13T17:09:28;41.80;;;29.52;;
23222;SDS011;11780;13.904;100.620;2022-12-13T17:12:03;36.47;;;27.98;;
23222;SDS011;11780;13.904;100.620;2022-12-13T17:14:34;40.45;;;28.33;;
23222;SDS011;11780;13.904;100.620;2022-12-13T17:17:04;37.70;;;28.88;;
23222;SDS011;11780;13.904;100.620;2022-12-13T17:19:41;36.13;;;28.48;;
23222;SDS011;11780;13.904;100.620;2022-12-13T17:22:12;40.33;;;29.52;;
23222;SDS011;11780;13.904;100.620;2022-12-13T17:24:42;32.53;;;27.08;;
23222;SDS011;11780;13.904;100.620;2022-12-13T17:27:13;40.97;;;29.40;;
23222;SDS011;11780;13.904;100.620;2022-12-13T17:29:46;35.28;;;26.98;;
23222;SDS011;11780;13.904;100.620;2022-12-13T17:32:16;40.13;;;29.15;;
23222;SDS011;11780;13.904;100.620;2022-12-13T17:34:47;37.50;;;27.75;;
23222;SDS011;11780;13.904;100.620;2022-12-13T17:37:17;38.15;;;27.98;;
23222;SDS011;11780;13.904;100.620;2022-12-13T17:39:48;34.90;;;29.53;;
23222;SDS011;11780;13.904;100.620;2022-12-13T17:42:18;34.63;;;27.08;;